createdAt,value
2022-08-04T00:00:05.749Z,21.40
2022-08-04T00:02:40.267Z,21.50
2022-08-04T00:05:19.842Z,21.40
2022-08-04T00:07:59.077Z,21.30
2022-08-04T00:10:35.168Z,21.20
2022-08-04T00:13:12.874Z,21.20
2022-08-04T00:15:48.014Z,21.20
2022-08-04T00:18:23.331Z,21.10
2022-08-04T00:20:58.356Z,21.10
2022-08-04T00:24:10.398Z,21.00
2022-08-04T00:26:29.496Z,21.00
2022-08-04T00:29:09.196Z,21.00
2022-08-04T00:31:56.285Z,20.90
2022-08-04T00:34:32.663Z,20.90
2022-08-04T00:37:07.416Z,20.90
2022-08-04T00:39:41.817Z,20.80
2022-08-04T00:42:30.258Z,20.80
2022-08-04T00:45:26.243Z,20.80
2022-08-04T00:48:09.114Z,20.70
2022-08-04T00:50:39.982Z,20.70
2022-08-04T00:53:22.679Z,20.70
2022-08-04T00:56:22.344Z,20.60
2022-08-04T00:58:55.848Z,20.50
2022-08-04T01:01:45.912Z,20.50
2022-08-04T01:04:23.949Z,20.40
2022-08-04T01:07:10.747Z,20.40
2022-08-04T01:09:49.673Z,20.40
2022-08-04T01:12:53.157Z,20.40
2022-08-04T01:15:30.042Z,20.30
2022-08-04T01:18:12.513Z,20.30
2022-08-04T01:20:51.693Z,20.30
2022-08-04T01:23:23.007Z,20.20
2022-08-04T01:26:43.425Z,20.20
2022-08-04T01:29:29.406Z,20.10
2022-08-04T01:32:17.097Z,20.10
2022-08-04T01:34:55.389Z,20.00
2022-08-04T01:37:36.724Z,20.00
2022-08-04T01:40:12.221Z,20.00
2022-08-04T01:42:46.788Z,19.90
2022-08-04T01:45:23.735Z,19.80
2022-08-04T01:48:01.365Z,19.90
2022-08-04T01:50:39.064Z,19.80
2022-08-04T01:53:15.708Z,19.80
2022-08-04T01:55:51.824Z,19.80
2022-08-04T01:58:29.804Z,19.70
2022-08-04T02:01:08.880Z,19.70
2022-08-04T02:04:20.284Z,19.60
2022-08-04T02:06:44.239Z,19.60
2022-08-04T02:09:20.954Z,19.60
2022-08-04T02:12:05.252Z,19.60
2022-08-04T02:14:45.838Z,19.50
2022-08-04T02:17:31.995Z,19.50
2022-08-04T02:20:11.688Z,19.50
2022-08-04T02:22:49.402Z,19.50
2022-08-04T02:25:26.882Z,19.40
2022-08-04T02:28:12.592Z,19.40
2022-08-04T02:30:50.528Z,19.40
2022-08-04T02:33:31.831Z,19.40
2022-08-04T02:36:08.727Z,19.30
2022-08-04T02:38:56.272Z,19.30
2022-08-04T02:41:32.531Z,19.30
2022-08-04T02:44:08.194Z,19.30
2022-08-04T02:46:45.042Z,19.20
2022-08-04T02:49:22.914Z,19.20
2022-08-04T02:51:58.929Z,19.20
2022-08-04T02:54:36.888Z,19.20
2022-08-04T02:57:16.104Z,19.20
2022-08-04T02:59:58.242Z,19.10
2022-08-04T03:02:42.772Z,19.10
2022-08-04T03:05:17.238Z,19.10
2022-08-04T03:08:27.253Z,19.00
2022-08-04T03:11:19.969Z,19.00
2022-08-04T03:14:24.781Z,19.00
2022-08-04T03:17:18.810Z,19.00
2022-08-04T03:20:09.529Z,19.00
2022-08-04T03:23:14.133Z,18.90
2022-08-04T03:29:00.910Z,18.90
2022-08-04T03:31:59.891Z,18.80
2022-08-04T03:34:47.434Z,18.90
2022-08-04T03:37:18.992Z,18.80
2022-08-04T03:40:18.245Z,18.80
2022-08-04T03:43:10.448Z,18.80
2022-08-04T03:46:42.975Z,18.80
2022-08-04T03:49:41.371Z,18.80
2022-08-04T03:52:33.035Z,18.80
2022-08-04T03:55:33.885Z,19.00
2022-08-04T03:58:36.120Z,18.90
2022-08-04T04:01:16.437Z,19.00
2022-08-04T04:04:17.569Z,19.10
2022-08-04T04:07:05.287Z,19.30
2022-08-04T04:10:26.713Z,19.40
2022-08-04T04:13:20.738Z,19.50
2022-08-04T04:16:04.003Z,19.70
2022-08-04T04:18:55.543Z,19.80
2022-08-04T04:21:39.524Z,20.10
2022-08-04T04:24:34.055Z,20.20
2022-08-04T04:27:13.467Z,20.40
2022-08-04T04:30:03.941Z,20.60
2022-08-04T04:33:00.693Z,20.70
2022-08-04T04:35:38.890Z,20.90
2022-08-04T04:38:39.336Z,21.10
2022-08-04T04:41:24.904Z,21.20
2022-08-04T04:44:30.932Z,21.50
2022-08-04T04:47:11.516Z,21.60
2022-08-04T04:49:52.071Z,21.60
2022-08-04T04:52:30.277Z,21.90
2022-08-04T04:55:12.318Z,22.10
2022-08-04T04:57:49.303Z,22.40
2022-08-04T05:00:29.734Z,22.60
2022-08-04T05:03:19.628Z,22.80
2022-08-04T05:06:18.505Z,23.00
2022-08-04T05:09:15.926Z,23.20
2022-08-04T05:11:50.404Z,23.50
2022-08-04T05:14:41.046Z,23.70
2022-08-04T05:17:14.056Z,23.90
2022-08-04T05:19:55.429Z,24.00
2022-08-04T05:22:36.862Z,24.10
2022-08-04T05:25:17.769Z,24.20
2022-08-04T05:27:55.216Z,24.40
2022-08-04T05:30:33.570Z,24.60
2022-08-04T05:33:14.172Z,24.70
2022-08-04T05:36:17.816Z,24.80
2022-08-04T05:38:45.672Z,24.80
2022-08-04T05:41:20.128Z,24.90
2022-08-04T05:43:54.846Z,24.90
2022-08-04T05:46:31.910Z,24.90
2022-08-04T05:49:07.426Z,25.10
2022-08-04T05:51:42.208Z,25.20
2022-08-04T05:54:21.486Z,25.40
2022-08-04T05:56:56.201Z,25.50
2022-08-04T05:59:31.496Z,25.60
2022-08-04T06:02:09.206Z,25.70
2022-08-04T06:04:47.197Z,25.90
2022-08-04T06:07:23.052Z,26.00
2022-08-04T06:10:01.090Z,26.00
2022-08-04T06:12:40.686Z,26.20
2022-08-04T06:15:13.621Z,26.50
2022-08-04T06:19:57.099Z,26.70
2022-08-04T06:20:55.884Z,26.90
2022-08-04T06:23:31.023Z,27.00
2022-08-04T06:26:06.956Z,27.20
2022-08-04T06:28:44.654Z,27.50
2022-08-04T06:32:27.437Z,27.50
2022-08-04T06:34:29.838Z,27.60
2022-08-04T06:37:04.717Z,27.70
2022-08-04T06:39:40.996Z,27.80
2022-08-04T06:42:22.721Z,28.10
2022-08-04T06:45:00.908Z,28.20
2022-08-04T06:47:35.771Z,28.10
2022-08-04T06:51:29.706Z,28.40
2022-08-04T06:53:08.300Z,28.60
2022-08-04T06:55:43.369Z,28.60
2022-08-04T06:58:19.841Z,28.70
2022-08-04T07:00:56.654Z,28.80
2022-08-04T07:03:31.577Z,28.90
2022-08-04T07:06:14.645Z,29.20
2022-08-04T07:08:50.193Z,29.40
2022-08-04T07:11:44.150Z,29.60
2022-08-04T07:14:19.566Z,29.80
2022-08-04T07:16:54.226Z,30.00
2022-08-04T07:19:30.651Z,30.10
2022-08-04T07:22:24.835Z,30.20
2022-08-04T07:25:00.054Z,30.40
2022-08-04T07:27:47.821Z,30.60
2022-08-04T07:30:24.965Z,30.90
2022-08-04T07:33:03.575Z,31.00
2022-08-04T07:36:09.322Z,31.20
2022-08-04T07:38:37.414Z,31.30
2022-08-04T07:44:10.000Z,31.60
2022-08-04T07:46:44.546Z,31.70
2022-08-04T07:49:52.216Z,31.90
2022-08-04T07:52:15.370Z,31.80
2022-08-04T07:54:54.443Z,32.00
2022-08-04T07:57:40.382Z,32.00
2022-08-04T08:00:18.124Z,32.00
2022-08-04T08:02:54.260Z,32.00
2022-08-04T08:05:30.944Z,32.00
2022-08-04T08:08:06.964Z,31.90
2022-08-04T08:10:49.089Z,31.90
2022-08-04T08:13:24.230Z,32.00
2022-08-04T08:15:59.882Z,32.00
2022-08-04T08:18:36.108Z,32.00
2022-08-04T08:21:11.318Z,32.00
2022-08-04T08:23:48.226Z,32.00
2022-08-04T08:26:26.494Z,32.10
2022-08-04T08:29:03.031Z,32.20
2022-08-04T08:31:57.788Z,32.30
2022-08-04T08:34:32.830Z,32.40
2022-08-04T08:37:08.368Z,32.50
2022-08-04T08:39:44.504Z,32.50
2022-08-04T08:42:48.435Z,32.50
2022-08-04T08:45:21.947Z,32.60
2022-08-04T08:48:28.429Z,32.70
2022-08-04T08:51:18.673Z,32.70
2022-08-04T08:54:18.202Z,32.90
2022-08-04T08:57:03.552Z,33.00
2022-08-04T08:59:48.471Z,33.20
2022-08-04T09:02:42.299Z,33.40
2022-08-04T09:05:28.125Z,33.50
2022-08-04T09:08:16.726Z,33.50
2022-08-04T09:10:51.707Z,33.30
2022-08-04T09:13:28.114Z,33.30
2022-08-04T09:16:10.261Z,33.30
2022-08-04T09:18:48.924Z,33.40
2022-08-04T09:21:29.510Z,33.50
2022-08-04T09:24:36.836Z,33.40
2022-08-04T09:27:03.469Z,33.40
2022-08-04T09:29:41.098Z,33.40
2022-08-04T09:32:25.612Z,33.50
2022-08-04T09:35:15.131Z,33.40
2022-08-04T09:37:55.813Z,33.30
2022-08-04T09:40:52.712Z,33.40
2022-08-04T09:43:58.805Z,33.40
2022-08-04T09:46:33.184Z,33.40
2022-08-04T09:49:14.936Z,33.40
2022-08-04T09:51:59.628Z,33.50
2022-08-04T09:54:35.999Z,33.60
2022-08-04T09:57:15.164Z,33.80
2022-08-04T09:59:56.467Z,33.70
2022-08-04T10:02:37.048Z,33.80
2022-08-04T10:05:12.985Z,33.70
2022-08-04T10:08:15.238Z,33.70
2022-08-04T10:10:59.996Z,33.90
2022-08-04T10:13:45.391Z,33.90
2022-08-04T10:16:39.284Z,33.80
2022-08-04T10:19:22.242Z,33.80
2022-08-04T10:22:28.463Z,33.70
2022-08-04T10:26:02.561Z,33.70
2022-08-04T10:28:06.943Z,33.70
2022-08-04T10:30:43.186Z,33.80
2022-08-04T10:33:25.611Z,33.90
2022-08-04T10:36:04.563Z,33.90
2022-08-04T10:38:42.231Z,33.70
2022-08-04T10:41:20.991Z,33.70
2022-08-04T10:44:04.635Z,33.60
2022-08-04T10:46:42.729Z,33.60
2022-08-04T10:49:28.380Z,33.60
2022-08-04T10:51:59.782Z,33.70
2022-08-04T10:54:48.568Z,33.60
2022-08-04T10:57:27.941Z,33.70
2022-08-04T11:00:09.298Z,33.70
2022-08-04T11:02:47.184Z,33.70
2022-08-04T11:05:21.911Z,33.70
2022-08-04T11:07:59.996Z,33.70
2022-08-04T11:10:39.381Z,33.70
2022-08-04T11:13:22.062Z,33.70
2022-08-04T11:16:10.782Z,33.60
2022-08-04T11:18:50.785Z,33.50
2022-08-04T11:21:28.346Z,33.40
2022-08-04T11:24:05.896Z,33.40
2022-08-04T11:26:44.901Z,33.50
2022-08-04T11:29:23.507Z,33.40
2022-08-04T11:32:02.836Z,33.60
2022-08-04T11:34:39.521Z,33.50
2022-08-04T11:37:17.221Z,33.50
2022-08-04T11:39:54.861Z,33.50
2022-08-04T11:42:33.998Z,33.40
2022-08-04T11:45:10.793Z,33.30
2022-08-04T11:47:52.145Z,33.30
2022-08-04T11:50:31.343Z,33.40
2022-08-04T11:53:06.416Z,33.40
2022-08-04T11:56:09.246Z,33.40
2022-08-04T11:58:39.558Z,33.30
2022-08-04T12:01:17.303Z,33.30
2022-08-04T12:04:04.871Z,33.30
2022-08-04T12:06:42.565Z,33.30
2022-08-04T12:09:38.003Z,33.40
2022-08-04T12:12:17.064Z,33.20
2022-08-04T12:14:56.014Z,33.10
2022-08-04T12:17:52.027Z,33.10
2022-08-04T12:20:41.018Z,33.10
2022-08-04T12:23:22.803Z,33.10
2022-08-04T12:25:59.412Z,33.10
2022-08-04T12:29:08.128Z,32.90
2022-08-04T12:31:33.269Z,32.90
2022-08-04T12:34:10.442Z,32.90
2022-08-04T12:36:54.125Z,33.00
2022-08-04T12:39:30.824Z,33.00
2022-08-04T12:42:11.418Z,33.00
2022-08-04T12:44:48.400Z,33.10
2022-08-04T12:47:29.225Z,33.20
2022-08-04T12:50:08.632Z,33.20
2022-08-04T12:53:01.591Z,33.10
2022-08-04T12:55:37.411Z,33.00
2022-08-04T12:58:43.190Z,32.90
2022-08-04T13:02:06.847Z,32.90
2022-08-04T13:04:13.921Z,32.80
2022-08-04T13:06:48.991Z,32.80
2022-08-04T13:09:26.764Z,32.70
2022-08-04T13:12:08.163Z,32.70
2022-08-04T13:14:46.337Z,32.80
2022-08-04T13:17:22.356Z,32.80
2022-08-04T13:20:01.313Z,32.80
2022-08-04T13:22:36.396Z,32.90
2022-08-04T13:26:42.779Z,32.80
2022-08-04T13:28:20.863Z,32.90
2022-08-04T13:30:57.798Z,32.80
2022-08-04T13:33:33.146Z,32.80
2022-08-04T13:36:10.952Z,32.80
2022-08-04T13:38:51.613Z,32.70
2022-08-04T13:41:31.466Z,32.80
2022-08-04T13:44:19.132Z,32.80
2022-08-04T13:46:56.610Z,32.80
2022-08-04T13:49:43.154Z,32.80
2022-08-04T13:52:29.910Z,32.80
2022-08-04T13:55:04.227Z,32.80
2022-08-04T13:57:46.594Z,32.80
2022-08-04T14:00:30.183Z,32.80
2022-08-04T14:03:22.945Z,32.70
2022-08-04T14:06:25.627Z,32.70
2022-08-04T14:09:02.649Z,32.60
2022-08-04T14:12:09.482Z,32.50
2022-08-04T14:14:35.459Z,32.50
2022-08-04T14:17:20.239Z,32.50
2022-08-04T14:19:56.764Z,32.40
2022-08-04T14:22:35.009Z,32.40
2022-08-04T14:25:16.036Z,32.40
2022-08-04T14:27:51.638Z,32.40
2022-08-04T14:30:30.653Z,32.40
2022-08-04T14:34:01.141Z,32.40
2022-08-04T14:36:04.534Z,32.30
2022-08-04T14:39:00.920Z,32.30
2022-08-04T14:41:40.025Z,32.30
2022-08-04T14:44:15.403Z,32.20
2022-08-04T14:46:57.809Z,32.20
2022-08-04T14:49:32.195Z,32.20
2022-08-04T14:52:10.271Z,32.20
2022-08-04T14:54:45.573Z,32.20
2022-08-04T14:57:22.756Z,32.10
2022-08-04T15:00:00.797Z,32.20
2022-08-04T15:02:42.325Z,32.20
2022-08-04T15:05:55.040Z,32.20
2022-08-04T15:08:12.405Z,32.20
2022-08-04T15:10:48.016Z,32.20
2022-08-04T15:13:25.883Z,32.20
2022-08-04T15:16:07.417Z,32.20
2022-08-04T15:18:49.134Z,32.10
2022-08-04T15:21:24.370Z,32.20
2022-08-04T15:23:59.318Z,32.10
2022-08-04T15:26:37.428Z,32.10
2022-08-04T15:29:16.607Z,32.10
2022-08-04T15:32:06.130Z,32.10
2022-08-04T15:34:55.851Z,32.10
2022-08-04T15:37:32.237Z,32.10
2022-08-04T15:40:10.109Z,32.10
2022-08-04T15:42:48.067Z,32.10
2022-08-04T15:46:04.307Z,32.10
2022-08-04T15:48:31.209Z,32.10
2022-08-04T15:51:19.684Z,32.10
2022-08-04T15:54:30.703Z,32.00
2022-08-04T15:57:08.675Z,32.10
2022-08-04T16:00:12.784Z,32.00
2022-08-04T16:02:56.373Z,32.00
2022-08-04T16:05:44.739Z,32.00
2022-08-04T16:08:22.769Z,32.00
2022-08-04T16:10:58.107Z,32.00
2022-08-04T16:13:34.179Z,31.90
2022-08-04T16:16:09.036Z,31.90
2022-08-04T16:18:46.682Z,31.90
2022-08-04T16:21:26.946Z,31.80
2022-08-04T16:24:05.176Z,31.80
2022-08-04T16:26:54.991Z,31.80
2022-08-04T16:29:32.705Z,31.70
2022-08-04T16:32:15.028Z,31.70
2022-08-04T16:34:59.978Z,31.70
2022-08-04T16:37:38.047Z,31.70
2022-08-04T16:40:38.070Z,31.70
2022-08-04T16:43:16.725Z,31.70
2022-08-04T16:45:54.674Z,31.60
2022-08-04T16:48:28.357Z,31.60
2022-08-04T16:51:05.947Z,31.50
2022-08-04T16:54:04.184Z,31.60
2022-08-04T16:56:36.521Z,31.50
2022-08-04T16:59:15.854Z,31.40
2022-08-04T17:01:53.883Z,31.40
2022-08-04T17:04:34.912Z,31.40
2022-08-04T17:07:09.747Z,31.30
2022-08-04T17:09:53.368Z,31.30
2022-08-04T17:12:31.995Z,31.30
2022-08-04T17:15:11.544Z,31.20
2022-08-04T17:18:04.072Z,31.20
2022-08-04T17:21:01.566Z,31.10
2022-08-04T17:24:15.276Z,31.10
2022-08-04T17:26:39.956Z,31.00
2022-08-04T17:29:19.721Z,31.00
2022-08-04T17:31:59.416Z,30.90
2022-08-04T17:34:34.538Z,30.90
2022-08-04T17:40:18.654Z,30.80
2022-08-04T17:44:03.015Z,30.70
2022-08-04T17:46:03.590Z,30.70
2022-08-04T17:48:40.949Z,30.60
2022-08-04T17:51:18.276Z,30.50
2022-08-04T17:54:03.383Z,30.50
2022-08-04T17:56:51.469Z,30.40
2022-08-04T17:59:56.133Z,30.30
2022-08-04T18:02:32.851Z,30.30
2022-08-04T18:05:14.538Z,30.20
2022-08-04T18:08:37.683Z,30.10
2022-08-04T18:10:55.453Z,30.00
2022-08-04T18:13:42.270Z,29.90
2022-08-04T18:16:22.187Z,29.80
2022-08-04T18:19:15.858Z,29.70
2022-08-04T18:24:56.135Z,29.60
2022-08-04T18:27:34.310Z,29.50
2022-08-04T18:30:34.443Z,29.40
2022-08-04T18:33:40.175Z,29.30
2022-08-04T18:36:34.147Z,29.20
2022-08-04T18:39:13.147Z,29.10
2022-08-04T18:42:03.789Z,29.10
2022-08-04T18:44:53.109Z,29.00
2022-08-04T18:47:29.749Z,28.90
2022-08-04T18:51:01.121Z,28.80
2022-08-04T18:53:06.025Z,28.70
2022-08-04T18:55:57.270Z,28.60
2022-08-04T18:58:38.775Z,28.60
2022-08-04T19:01:17.217Z,28.50
2022-08-04T19:03:57.620Z,28.40
2022-08-04T19:06:37.304Z,28.30
2022-08-04T19:09:20.896Z,28.20
2022-08-04T19:12:00.383Z,28.20
2022-08-04T19:14:43.395Z,28.10
2022-08-04T19:17:52.648Z,28.00
2022-08-04T19:20:25.478Z,27.90
2022-08-04T19:24:29.005Z,27.80
2022-08-04T19:26:02.976Z,27.80
2022-08-04T19:28:44.020Z,27.70
2022-08-04T19:31:34.325Z,27.60
2022-08-04T19:34:16.558Z,27.50
2022-08-04T19:37:09.143Z,27.50
2022-08-04T19:39:45.228Z,27.40
2022-08-04T19:42:23.504Z,27.30
2022-08-04T19:45:08.389Z,27.30
2022-08-04T19:50:39.574Z,27.10
2022-08-04T19:53:18.925Z,27.00
2022-08-04T19:55:54.140Z,27.00
2022-08-04T19:58:35.486Z,26.90
2022-08-04T20:01:33.546Z,26.80
2022-08-04T20:04:12.707Z,26.80
2022-08-04T20:06:48.076Z,26.70
2022-08-04T20:09:25.301Z,26.70
2022-08-04T20:12:02.554Z,26.60
2022-08-04T20:14:39.384Z,26.60
2022-08-04T20:17:18.932Z,26.50
2022-08-04T20:19:59.634Z,26.40
2022-08-04T20:22:52.753Z,26.40
2022-08-04T20:25:37.491Z,26.30
2022-08-04T20:28:25.723Z,26.20
2022-08-04T20:31:10.477Z,26.20
2022-08-04T20:33:56.299Z,26.10
2022-08-04T20:36:32.824Z,26.10
2022-08-04T20:39:09.847Z,26.10
2022-08-04T20:41:47.478Z,26.00
2022-08-04T20:44:26.877Z,26.00
2022-08-04T20:47:02.961Z,25.90
2022-08-04T20:49:40.358Z,25.90
2022-08-04T20:52:19.937Z,25.80
2022-08-04T20:54:57.474Z,25.80
2022-08-04T20:57:49.779Z,25.70
2022-08-04T21:03:38.797Z,25.60
2022-08-04T21:06:25.368Z,25.60
2022-08-04T21:09:09.589Z,25.50
2022-08-04T21:11:52.492Z,25.40
2022-08-04T21:14:29.823Z,25.30
2022-08-04T21:17:08.132Z,25.30
2022-08-04T21:19:46.500Z,25.20
2022-08-04T21:22:33.203Z,25.20
2022-08-04T21:25:16.114Z,25.20
2022-08-04T21:27:55.370Z,25.10
2022-08-04T21:30:36.970Z,25.10
2022-08-04T21:33:50.848Z,25.00
2022-08-04T21:36:27.509Z,24.90
2022-08-04T21:39:07.071Z,24.90
2022-08-04T21:42:26.551Z,24.80
2022-08-04T21:44:42.693Z,24.70
2022-08-04T21:47:23.753Z,24.70
2022-08-04T21:49:58.648Z,24.60
2022-08-04T21:52:36.105Z,24.60
2022-08-04T21:55:14.730Z,24.60
2022-08-04T21:57:49.590Z,24.40
2022-08-04T22:00:25.675Z,24.40
2022-08-04T22:03:03.005Z,24.30
2022-08-04T22:05:39.340Z,24.30
2022-08-04T22:08:19.925Z,24.20
2022-08-04T22:10:58.543Z,24.20
2022-08-04T22:13:52.842Z,24.10
2022-08-04T22:16:30.182Z,24.00
2022-08-04T22:19:04.791Z,24.00
2022-08-04T22:21:45.325Z,24.00
2022-08-04T22:24:22.111Z,23.90
2022-08-04T22:27:03.888Z,23.90
2022-08-04T22:29:47.422Z,23.80
2022-08-04T22:32:21.812Z,23.80
2022-08-04T22:35:35.611Z,23.70
2022-08-04T22:38:06.715Z,23.70
2022-08-04T22:41:01.212Z,23.60
2022-08-04T22:43:39.657Z,23.60
2022-08-04T22:46:15.363Z,23.50
2022-08-04T22:48:52.738Z,23.50
2022-08-04T22:51:28.041Z,23.40
2022-08-04T22:54:12.585Z,23.40
2022-08-04T22:56:48.023Z,23.40
2022-08-04T22:59:26.713Z,23.30
2022-08-04T23:02:03.735Z,23.30
2022-08-04T23:04:39.606Z,23.20
2022-08-04T23:07:15.309Z,23.20
2022-08-04T23:09:51.682Z,23.20
2022-08-04T23:12:27.736Z,23.20
2022-08-04T23:15:05.764Z,23.10
2022-08-04T23:17:44.026Z,23.10
2022-08-04T23:20:32.966Z,23.00
2022-08-04T23:23:15.220Z,23.00
2022-08-04T23:26:07.671Z,23.00
2022-08-04T23:28:46.326Z,22.90
2022-08-04T23:31:41.315Z,22.90
2022-08-04T23:34:20.435Z,22.80
2022-08-04T23:36:56.442Z,22.80
2022-08-04T23:40:04.007Z,22.80
2022-08-04T23:42:31.140Z,22.70
2022-08-04T23:45:09.259Z,22.70
2022-08-04T23:48:14.752Z,22.70
2022-08-04T23:50:43.294Z,22.60
2022-08-04T23:53:22.638Z,22.60
2022-08-04T23:55:57.901Z,22.60
2022-08-04T23:58:33.295Z,22.60
